Aviation Digital Data Service (ADDS)

Output produced by METARs form (2236 UTC 23 March 2019)
found at http://www.aviationweather.gov/metar/data/
 
Forecast for: EDLV (NIEDERRHEIN , DE)
Text: TAF EDLV 231700Z 2318/2418 VRB03KT 7000 BKN020
Forecast period: 1800 UTC 23 March 2019 to 0800 UTC 24 March 2019
Forecast type: FROM: standard forecast or significant change
Winds: variable direction winds at 3 MPH (3 knots; 1.5 m/s)
Visibility: 4 miles (7 km)
Ceiling: 2000 feet AGL
Clouds: broken clouds at 2000 feet AGL
Weather: no significant weather forecast for this period
Text: PROB30
Forecast period: 0300 to 0800 UTC 24 March 2019
Forecast type: TEMPORARY: The following changes expected for less than half the time period
Visibility: 1.24 miles (2.00 km)
Ceiling: 700 feet AGL
Clouds: broken clouds at 700 feet AGL
Weather: -DZ BR  (light drizzle, mist)
Text: TEMPO 2403/2408 2000 -DZ BR BKN007
Forecast period: 0800 to 1800 UTC 24 March 2019
Forecast type: BECOMING: Conditions expected to become as follows by 1100 UTC 24 March 2019
Winds: from the NW (310 degrees) at 7 MPH (6 knots; 3.1 m/s)
Visibility: 4 miles (7 km)
Ceiling: 2000 feet AGL
Clouds: broken clouds at 2000 feet AGL
Weather: no significant weather forecast for this period